Florencia — IBPD — position and weather

sailwx.info

Track history (hours):
 
Tides and Currents Weather Stations Pressure Air Temp Water Temp Dewpoint Dewpoint Depression Visibility Wind Speed Wind Dir Waves Ship Positions

Florencia

Last reported at 2017-Mar-29 06:24 UTC. Time now 2017-Mar-29 15:14 UTC.
Position N 37°29' E 015°06'.

Length 186 m; draft 6.3 m.

Type: Ship (hazmat cat C). MMSI: 247105900.

Date/timePositionNaut miles runAvg speedWind from/ knotsBaromVisibWave heightAir tempDewpointWater temp
2017-Mar-29 06:24N 37°29' E 015°06'1517.2
2017-Mar-29 05:33N 37°39' E 015°19'2222.0
2017-Mar-29 04:34N 37°59' E 015°30'2020.4
2017-Mar-29 03:33N 38°18' E 015°41'2121.5
2017-Mar-29 02:33N 38°37' E 015°29'2221.6
2017-Mar-29 01:33N 38°57' E 015°16'13 0.6
2017-Mar-28 02:33N 38°46' E 015°25'2221.9
2017-Mar-28 01:33N 38°26' E 015°37'1717.1
2017-Mar-28 00:33N 38°09' E 015°37'2120.7
2017-Mar-27 23:34N 37°50' E 015°26'2221.7
2017-Mar-27 22:32N 37°31' E 015°13'6 0.4
2017-Mar-27 07:30N 37°29' E 015°06'0 0.0
2017-Mar-27 06:32N 37°29' E 015°06'0 0.0
2017-Mar-27 05:31N 37°29' E 015°06'3 3.2
2017-Mar-27 04:33N 37°28' E 015°09'2120.8
2017-Mar-27 03:34N 37°46' E 015°23'2221.8
2017-Mar-27 02:34N 38°06' E 015°34'1817.9
2017-Mar-27 01:33N 38°24' E 015°37'2020.3
2017-Mar-27 00:33N 38°42' E 015°26'2020.2
2017-Mar-26 23:33N 39°00' E 015°14'14 0.7
2017-Mar-26 03:33N 38°49' E 015°24'2121.0
2017-Mar-26 02:33N 38°30' E 015°35'1817.6
2017-Mar-26 01:34N 38°12' E 015°37'2019.6
2017-Mar-26 00:33N 37°54' E 015°28'2121.3
2017-Mar-25 23:33N 37°35' E 015°16'10 0.6
2017-Mar-25 07:31N 37°29' E 015°06'1818.3
2017-Mar-25 06:33N 37°42' E 015°21'2121.4
2017-Mar-25 05:33N 38°02' E 015°31'1919.1
2017-Mar-25 04:34N 38°20' E 015°39'2120.8
2017-Mar-25 03:34N 38°39' E 015°28'2121.0
2017-Mar-25 02:34N 38°58' E 015°17'12217.3
2017-Mar-24 19:32N 40°50' E 014°16'0 0.0
2017-Mar-24 18:30N 40°50' E 014°16'0 0.0
2017-Mar-24 17:31N 40°50' E 014°16'0 0.0
2017-Mar-24 16:32N 40°50' E 014°16'0 0.0
2017-Mar-24 13:33N 40°50' E 014°16'0 0.0
2017-Mar-24 12:33N 40°50' E 014°16'0 0.0
2017-Mar-24 11:33N 40°50' E 014°16'0 0.0
2017-Mar-24 10:33N 40°50' E 014°16'0 0.0
2017-Mar-24 09:33N 40°50' E 014°16'0 0.0
2017-Mar-24 08:33N 40°50' E 014°16'0 0.0
2017-Mar-24 07:33N 40°50' E 014°16'3 3.0
2017-Mar-24 06:33N 40°48' E 014°17'11821.6
2017-Mar-24 01:05N 38°59' E 015°17'1221.7
2017-Mar-24 00:33N 38°48' E 015°24'2121.6
2017-Mar-23 23:33N 38°29' E 015°36'1817.9
2017-Mar-23 22:33N 38°11' E 015°37'2120.8
2017-Mar-23 21:33N 37°52' E 015°27'2222.3
2017-Mar-23 20:34N 37°32' E 015°14'7 0.9
2017-Mar-23 12:33N 37°29' E 015°06'0 0.0
2017-Mar-23 09:31N 37°29' E 015°06'0 0.1
2017-Mar-23 07:33N 37°29' E 015°06'1514.1
2017-Mar-23 06:31N 37°39' E 015°19'2121.5
2017-Mar-23 05:34N 37°58' E 015°29'2121.2
2017-Mar-23 04:33N 38°18' E 015°41'2121.5
2017-Mar-23 03:33N 38°37' E 015°29'2221.6
2017-Mar-23 02:33N 38°57' E 015°16'7 0.3
2017-Mar-22 04:19N 39°03' E 015°14'1621.3
2017-Mar-22 03:33N 38°49' E 015°24'2121.1
2017-Mar-22 02:33N 38°30' E 015°35'1717.4
2017-Mar-22 01:33N 38°12' E 015°37'2019.9
2017-Mar-22 00:33N 37°54' E 015°28'2422.2
2017-Mar-21 23:27N 37°32' E 015°14'7 0.8
2017-Mar-21 14:33N 37°29' E 015°06'0 0.0
2017-Mar-21 11:33N 37°29' E 015°06'0 0.0
2017-Mar-21 07:32N 37°29' E 015°06'1110.9
2017-Mar-21 06:32N 37°35' E 015°17'2121.6
2017-Mar-21 05:33N 37°55' E 015°28'2222.1
2017-Mar-21 04:34N 38°15' E 015°39'2020.0
2017-Mar-21 03:34N 38°34' E 015°32'2222.1
2017-Mar-21 02:33N 38°54' E 015°18'1 0.1
2017-Mar-20 00:32N 38°54' E 015°20'2222.2
2017-Mar-19 23:33N 38°35' E 015°32'2020.5
2017-Mar-19 22:33N 38°16' E 015°41'2019.7
2017-Mar-19 21:33N 37°58' E 015°30'2222.0
2017-Mar-19 20:33N 37°38' E 015°19'13 4.0
2017-Mar-19 17:12N 37°29' E 015°06'0 0.0
2017-Mar-19 13:26N 37°29' E 015°06'0 0.0
2017-Mar-19 10:32N 37°29' E 015°06'0 0.0
2017-Mar-19 09:17N 37°29' E 015°06'0 0.0
2017-Mar-19 08:17N 37°29' E 015°06'0 0.3
2017-Mar-19 07:33N 37°29' E 015°06'1414.2
2017-Mar-19 06:33N 37°39' E 015°19'  
Track history (hours):
 
Tides and Currents Weather Stations Pressure Air Temp Water Temp Dewpoint Dewpoint Depression Visibility Wind Speed Wind Dir Waves Ship Positions

Florencia

Last reported at 2017-Mar-29 06:24 UTC. Time now 2017-Mar-29 15:14 UTC.
Position N 37°29' E 015°06'.

Length 186 m; draft 6.3 m.

Type: Ship (hazmat cat C). MMSI: 247105900.

Date/timePositionNaut miles runAvg speedWind from/ knotsBaromVisibWave heightAir tempDewpointWater temp
2017-Mar-29 06:24N 37°29' E 015°06'1517.2
2017-Mar-29 05:33N 37°39' E 015°19'2222.0
2017-Mar-29 04:34N 37°59' E 015°30'2020.4
2017-Mar-29 03:33N 38°18' E 015°41'2121.5
2017-Mar-29 02:33N 38°37' E 015°29'2221.6
2017-Mar-29 01:33N 38°57' E 015°16'13 0.6
2017-Mar-28 02:33N 38°46' E 015°25'2221.9
2017-Mar-28 01:33N 38°26' E 015°37'1717.1
2017-Mar-28 00:33N 38°09' E 015°37'2120.7
2017-Mar-27 23:34N 37°50' E 015°26'2221.7
2017-Mar-27 22:32N 37°31' E 015°13'6 0.4
2017-Mar-27 07:30N 37°29' E 015°06'0 0.0
2017-Mar-27 06:32N 37°29' E 015°06'0 0.0
2017-Mar-27 05:31N 37°29' E 015°06'3 3.2
2017-Mar-27 04:33N 37°28' E 015°09'2120.8
2017-Mar-27 03:34N 37°46' E 015°23'2221.8
2017-Mar-27 02:34N 38°06' E 015°34'1817.9
2017-Mar-27 01:33N 38°24' E 015°37'2020.3
2017-Mar-27 00:33N 38°42' E 015°26'2020.2
2017-Mar-26 23:33N 39°00' E 015°14'14 0.7
2017-Mar-26 03:33N 38°49' E 015°24'2121.0
2017-Mar-26 02:33N 38°30' E 015°35'1817.6
2017-Mar-26 01:34N 38°12' E 015°37'2019.6
2017-Mar-26 00:33N 37°54' E 015°28'2121.3
2017-Mar-25 23:33N 37°35' E 015°16'10 0.6
2017-Mar-25 07:31N 37°29' E 015°06'1818.3
2017-Mar-25 06:33N 37°42' E 015°21'2121.4
2017-Mar-25 05:33N 38°02' E 015°31'1919.1
2017-Mar-25 04:34N 38°20' E 015°39'2120.8
2017-Mar-25 03:34N 38°39' E 015°28'2121.0
2017-Mar-25 02:34N 38°58' E 015°17'12217.3
2017-Mar-24 19:32N 40°50' E 014°16'0 0.0
2017-Mar-24 18:30N 40°50' E 014°16'0 0.0
2017-Mar-24 17:31N 40°50' E 014°16'0 0.0
2017-Mar-24 16:32N 40°50' E 014°16'0 0.0
2017-Mar-24 13:33N 40°50' E 014°16'0 0.0
2017-Mar-24 12:33N 40°50' E 014°16'0 0.0
2017-Mar-24 11:33N 40°50' E 014°16'0 0.0
2017-Mar-24 10:33N 40°50' E 014°16'0 0.0
2017-Mar-24 09:33N 40°50' E 014°16'0 0.0
2017-Mar-24 08:33N 40°50' E 014°16'0 0.0
2017-Mar-24 07:33N 40°50' E 014°16'3 3.0
2017-Mar-24 06:33N 40°48' E 014°17'11821.6
2017-Mar-24 01:05N 38°59' E 015°17'1221.7
2017-Mar-24 00:33N 38°48' E 015°24'2121.6
2017-Mar-23 23:33N 38°29' E 015°36'1817.9
2017-Mar-23 22:33N 38°11' E 015°37'2120.8
2017-Mar-23 21:33N 37°52' E 015°27'2222.3
2017-Mar-23 20:34N 37°32' E 015°14'7 0.9
2017-Mar-23 12:33N 37°29' E 015°06'0 0.0
2017-Mar-23 09:31N 37°29' E 015°06'0 0.1
2017-Mar-23 07:33N 37°29' E 015°06'1514.1
2017-Mar-23 06:31N 37°39' E 015°19'2121.5
2017-Mar-23 05:34N 37°58' E 015°29'2121.2
2017-Mar-23 04:33N 38°18' E 015°41'2121.5
2017-Mar-23 03:33N 38°37' E 015°29'2221.6
2017-Mar-23 02:33N 38°57' E 015°16'7 0.3
2017-Mar-22 04:19N 39°03' E 015°14'1621.3
2017-Mar-22 03:33N 38°49' E 015°24'2121.1
2017-Mar-22 02:33N 38°30' E 015°35'1717.4
2017-Mar-22 01:33N 38°12' E 015°37'2019.9
2017-Mar-22 00:33N 37°54' E 015°28'2422.2
2017-Mar-21 23:27N 37°32' E 015°14'7 0.8
2017-Mar-21 14:33N 37°29' E 015°06'0 0.0
2017-Mar-21 11:33N 37°29' E 015°06'0 0.0
2017-Mar-21 07:32N 37°29' E 015°06'1110.9
2017-Mar-21 06:32N 37°35' E 015°17'2121.6
2017-Mar-21 05:33N 37°55' E 015°28'2222.1
2017-Mar-21 04:34N 38°15' E 015°39'2020.0
2017-Mar-21 03:34N 38°34' E 015°32'2222.1
2017-Mar-21 02:33N 38°54' E 015°18'1 0.1
2017-Mar-20 00:32N 38°54' E 015°20'2222.2
2017-Mar-19 23:33N 38°35' E 015°32'2020.5
2017-Mar-19 22:33N 38°16' E 015°41'2019.7
2017-Mar-19 21:33N 37°58' E 015°30'2222.0
2017-Mar-19 20:33N 37°38' E 015°19'13 4.0
2017-Mar-19 17:12N 37°29' E 015°06'0 0.0
2017-Mar-19 13:26N 37°29' E 015°06'0 0.0
2017-Mar-19 10:32N 37°29' E 015°06'0 0.0
2017-Mar-19 09:17N 37°29' E 015°06'0 0.0
2017-Mar-19 08:17N 37°29' E 015°06'0 0.3
2017-Mar-19 07:33N 37°29' E 015°06'1414.2
2017-Mar-19 06:33N 37°39' E 015°19'  

Dump ship's entire track history